Time;durP1;ratioP1;P1;durP2;ratioP2;P2;SDS_P1;SDS_P2;PMS_P1;PMS_P2;Temp;Humidity;BMP_temperature;BMP_pressure;BME280_temperature;BME280_humidity;BME280_pressure;Samples;Min_cycle;Max_cycle;Signal;HPM_P1;HPM_P2
2023/10/25 00:00:38;;;;;;;57.00;3.57;;;;;;;;;;5052643;28;21037;-70
2023/10/25 00:03:06;;;;;;;56.00;2.43;;;;;;;;;;5052921;28;20449;-70
2023/10/25 00:05:33;;;;;;;56.20;2.50;;;;;;;;;;5052753;28;20479;-67
2023/10/25 00:08:00;;;;;;;56.13;2.70;;;;;;;;;;5052835;28;20448;-68
2023/10/25 00:10:29;;;;;;;56.07;2.70;;;;;;;;;;5052919;28;20839;-68
2023/10/25 00:12:56;;;;;;;56.70;2.50;;;;;;;;;;5044893;28;20455;-70
2023/10/25 00:15:23;;;;;;;55.97;2.37;;;;;;;;;;5052525;28;20496;-68
2023/10/25 00:17:50;;;;;;;55.90;2.30;;;;;;;;;;5052959;28;20464;-68
2023/10/25 00:20:18;;;;;;;56.00;2.60;;;;;;;;;;5052530;28;20468;-68
2023/10/25 00:22:45;;;;;;;56.10;2.37;;;;;;;;;;5052392;28;20535;-68
2023/10/25 00:25:12;;;;;;;56.40;2.40;;;;;;;;;;5052573;28;20823;-68
2023/10/25 00:27:40;;;;;;;56.17;2.40;;;;;;;;;;5052812;28;20446;-68
2023/10/25 00:30:08;;;;;;;55.77;2.17;;;;;;;;;;5052415;28;20468;-68
2023/10/25 00:32:35;;;;;;;56.00;2.20;;;;;;;;;;5052276;28;20825;-68
2023/10/25 00:35:02;;;;;;;57.00;3.13;;;;;;;;;;5052115;28;20445;-68
2023/10/25 00:37:29;;;;;;;55.50;2.40;;;;;;;;;;5052271;28;20535;-68
2023/10/25 00:39:56;;;;;;;56.30;2.43;;;;;;;;;;5043961;28;20464;-68
2023/10/25 00:42:24;;;;;;;56.50;2.57;;;;;;;;;;5052356;28;20457;-68
2023/10/25 00:44:52;;;;;;;56.10;2.20;;;;;;;;;;5051792;28;20931;-68
2023/10/25 00:47:19;;;;;;;55.90;2.20;;;;;;;;;;5052171;28;20445;-68
2023/10/25 00:49:47;;;;;;;56.17;2.27;;;;;;;;;;5051839;28;20834;-68
2023/10/25 00:52:14;;;;;;;56.30;2.50;;;;;;;;;;5052216;28;20454;-68
2023/10/25 00:54:41;;;;;;;56.10;2.23;;;;;;;;;;5051815;28;20492;-68
2023/10/25 00:57:09;;;;;;;55.73;2.37;;;;;;;;;;5052029;28;20493;-69
2023/10/25 00:59:36;;;;;;;56.40;2.60;;;;;;;;;;5051788;28;20473;-69
2023/10/25 01:02:07;;;;;;;56.23;2.90;;;;;;;;;;5051623;28;20462;-69
2023/10/25 01:04:35;;;;;;;56.50;2.70;;;;;;;;;;5051647;28;20998;-69
2023/10/25 01:07:02;;;;;;;55.87;2.40;;;;;;;;;;5052116;28;20448;-69
2023/10/25 01:09:29;;;;;;;56.07;2.30;;;;;;;;;;5051700;28;20483;-68
2023/10/25 01:11:56;;;;;;;55.77;2.30;;;;;;;;;;5051637;28;20453;-69
2023/10/25 01:14:27;;;;;;;56.27;2.53;;;;;;;;;;5051548;28;20889;-69
2023/10/25 01:16:54;;;;;;;56.60;2.77;;;;;;;;;;5051443;28;20497;-69
2023/10/25 01:19:22;;;;;;;55.87;2.23;;;;;;;;;;5051708;28;20844;-69
2023/10/25 01:21:49;;;;;;;56.30;2.50;;;;;;;;;;5051561;28;20466;-69
2023/10/25 01:24:18;;;;;;;56.17;2.80;;;;;;;;;;5050609;28;20941;-69
2023/10/25 01:26:45;;;;;;;58.20;3.03;;;;;;;;;;5051345;28;20444;-69
2023/10/25 01:29:12;;;;;;;55.97;2.20;;;;;;;;;;5051357;28;20849;-69
2023/10/25 01:31:39;;;;;;;56.50;2.73;;;;;;;;;;5051069;28;20440;-68
2023/10/25 01:34:06;;;;;;;56.03;2.90;;;;;;;;;;5051195;28;20448;-69
2023/10/25 01:36:33;;;;;;;56.17;2.73;;;;;;;;;;5051131;28;20488;-69
2023/10/25 01:39:00;;;;;;;55.73;2.07;;;;;;;;;;5042957;28;20462;-69
2023/10/25 01:41:29;;;;;;;56.40;2.60;;;;;;;;;;5051062;28;20456;-69
2023/10/25 01:43:56;;;;;;;56.03;2.40;;;;;;;;;;5050959;28;20463;-69
2023/10/25 01:46:23;;;;;;;57.07;2.60;;;;;;;;;;5051105;28;20811;-69
2023/10/25 01:48:51;;;;;;;56.37;2.70;;;;;;;;;;5050827;28;20450;-68
2023/10/25 01:51:18;;;;;;;55.93;2.47;;;;;;;;;;5050727;28;20452;-69
2023/10/25 01:53:45;;;;;;;55.97;2.47;;;;;;;;;;5051134;28;20444;-69
2023/10/25 01:56:12;;;;;;;55.93;2.40;;;;;;;;;;5050754;28;21027;-69
2023/10/25 01:58:43;;;;;;;56.00;2.70;;;;;;;;;;5050922;28;20519;-69
2023/10/25 02:01:10;;;;;;;55.67;2.40;;;;;;;;;;5050352;28;20463;-69
2023/10/25 02:03:37;;;;;;;55.73;2.20;;;;;;;;;;5050514;28;20452;-69
2023/10/25 02:06:14;;;;;;;55.67;2.20;;;;;;;;;;5050696;28;20452;-69
2023/10/25 02:08:41;;;;;;;56.37;2.57;;;;;;;;;;5050751;28;20820;-69
2023/10/25 02:11:08;;;;;;;55.97;2.70;;;;;;;;;;5050559;28;20449;-72
2023/10/25 02:13:36;;;;;;;56.80;2.60;;;;;;;;;;5050153;28;20450;-69
2023/10/25 02:16:13;;;;;;;56.80;3.17;;;;;;;;;;5050124;28;21000;-69
2023/10/25 02:18:40;;;;;;;55.97;2.20;;;;;;;;;;5050729;28;20450;-69
2023/10/25 02:21:07;;;;;;;56.80;3.90;;;;;;;;;;5050629;28;20453;-69
2023/10/25 02:23:34;;;;;;;57.23;2.90;;;;;;;;;;5050704;28;20886;-69
2023/10/25 02:26:01;;;;;;;55.77;2.30;;;;;;;;;;5050678;28;20454;-69
2023/10/25 02:28:28;;;;;;;56.47;2.40;;;;;;;;;;5050936;28;20456;-69
2023/10/25 02:30:55;;;;;;;56.30;2.73;;;;;;;;;;5050134;28;20464;-69
2023/10/25 02:33:24;;;;;;;55.10;2.20;;;;;;;;;;5050283;28;20580;-69
2023/10/25 02:35:51;;;;;;;56.40;2.60;;;;;;;;;;5050051;28;20578;-69
2023/10/25 02:38:18;;;;;;;56.47;2.50;;;;;;;;;;5050700;28;20454;-69
2023/10/25 02:40:45;;;;;;;56.00;2.20;;;;;;;;;;5050109;28;20468;-69
2023/10/25 02:43:12;;;;;;;55.37;2.30;;;;;;;;;;5050506;28;20444;-69
2023/10/25 02:45:39;;;;;;;55.53;2.10;;;;;;;;;;5049955;28;20929;-69
2023/10/25 02:48:12;;;;;;;55.80;2.27;;;;;;;;;;5050734;28;20445;-69
2023/10/25 02:50:41;;;;;;;56.00;2.20;;;;;;;;;;5050145;28;20469;-69
2023/10/25 02:53:08;;;;;;;55.67;2.30;;;;;;;;;;5050439;28;20453;-69
2023/10/25 02:55:35;;;;;;;56.00;2.20;;;;;;;;;;5049812;28;20455;-69
2023/10/25 02:58:02;;;;;;;56.23;2.70;;;;;;;;;;5050115;28;20491;-69
2023/10/25 03:00:29;;;;;;;56.50;2.60;;;;;;;;;;5050107;28;20488;-69
2023/10/25 03:02:56;;;;;;;55.87;2.20;;;;;;;;;;5050377;28;20802;-69
2023/10/25 03:05:23;;;;;;;55.97;2.30;;;;;;;;;;5050157;28;21013;-69
2023/10/25 03:07:52;;;;;;;56.47;2.80;;;;;;;;;;5050000;28;20441;-69
2023/10/25 03:10:20;;;;;;;56.07;2.30;;;;;;;;;;5049946;28;20861;-69
2023/10/25 03:12:47;;;;;;;56.00;2.17;;;;;;;;;;5049934;28;21014;-69
2023/10/25 03:15:14;;;;;;;56.57;3.10;;;;;;;;;;5049776;28;20467;-69
2023/10/25 03:17:41;;;;;;;55.77;2.23;;;;;;;;;;5049746;28;21003;-69
2023/10/25 03:20:09;;;;;;;56.33;2.37;;;;;;;;;;5049790;28;20502;-69
2023/10/25 03:22:36;;;;;;;55.87;2.20;;;;;;;;;;5050023;28;20720;-69
2023/10/25 03:25:04;;;;;;;56.80;2.77;;;;;;;;;;5051322;28;20441;-69
2023/10/25 03:27:31;;;;;;;55.87;2.50;;;;;;;;;;5053600;28;20442;-70
2023/10/25 03:29:58;;;;;;;55.73;2.60;;;;;;;;;;5053307;28;20469;-69
2023/10/25 03:32:26;;;;;;;55.67;2.40;;;;;;;;;;5053571;28;20458;-69
2023/10/25 03:34:53;;;;;;;56.03;2.17;;;;;;;;;;5053175;28;20813;-69
2023/10/25 03:37:20;;;;;;;55.80;2.33;;;;;;;;;;5053378;28;20506;-69
2023/10/25 03:39:47;;;;;;;56.30;2.50;;;;;;;;;;5053049;28;20463;-69
2023/10/25 03:42:15;;;;;;;56.80;3.00;;;;;;;;;;5053853;28;20649;-69
2023/10/25 03:44:42;;;;;;;55.97;2.70;;;;;;;;;;5053384;28;20457;-69
2023/10/25 03:47:09;;;;;;;55.77;2.37;;;;;;;;;;5053395;28;20450;-69
2023/10/25 03:49:36;;;;;;;55.87;2.50;;;;;;;;;;5053286;28;20468;-69
2023/10/25 03:52:04;;;;;;;56.80;2.70;;;;;;;;;;5052962;28;20451;-69
2023/10/25 03:54:31;;;;;;;56.37;2.70;;;;;;;;;;5052808;28;20811;-69
2023/10/25 03:56:58;;;;;;;56.50;2.60;;;;;;;;;;5053229;28;20495;-69
2023/10/25 03:59:26;;;;;;;56.03;2.40;;;;;;;;;;5053141;28;20479;-69
2023/10/25 04:01:53;;;;;;;56.40;2.60;;;;;;;;;;5052822;28;20829;-69
2023/10/25 04:04:21;;;;;;;56.10;2.40;;;;;;;;;;5052891;28;20830;-69
2023/10/25 04:06:48;;;;;;;55.77;2.53;;;;;;;;;;5053292;28;20459;-69
2023/10/25 04:09:15;;;;;;;56.60;2.70;;;;;;;;;;5053184;28;20465;-69
2023/10/25 04:11:42;;;;;;;56.63;2.57;;;;;;;;;;5052905;28;20452;-69
2023/10/25 04:14:09;;;;;;;56.30;2.43;;;;;;;;;;5052888;28;20454;-69
2023/10/25 04:16:38;;;;;;;55.83;2.93;;;;;;;;;;5052623;28;20487;-69
2023/10/25 04:19:05;;;;;;;56.80;2.80;;;;;;;;;;5052400;28;20465;-69
2023/10/25 04:21:32;;;;;;;57.40;3.37;;;;;;;;;;5052537;28;20453;-69
2023/10/25 04:24:01;;;;;;;56.30;2.60;;;;;;;;;;5052575;28;20455;-69
2023/10/25 04:26:28;;;;;;;56.70;3.60;;;;;;;;;;5052779;28;20444;-69
2023/10/25 04:28:55;;;;;;;56.07;2.50;;;;;;;;;;5052411;28;20510;-69
2023/10/25 04:31:22;;;;;;;55.80;2.33;;;;;;;;;;5052278;28;20445;-70
2023/10/25 04:33:51;;;;;;;56.60;2.80;;;;;;;;;;5052254;28;20445;-69
2023/10/25 04:36:18;;;;;;;56.50;2.80;;;;;;;;;;5051923;28;20453;-69
2023/10/25 04:38:46;;;;;;;55.57;2.27;;;;;;;;;;5052184;28;20449;-69
2023/10/25 04:41:13;;;;;;;56.90;3.13;;;;;;;;;;5052446;28;20457;-69
2023/10/25 04:43:41;;;;;;;58.90;3.43;;;;;;;;;;5052160;28;20445;-69
2023/10/25 04:46:13;;;;;;;59.17;3.13;;;;;;;;;;5052116;28;20500;-69
2023/10/25 04:48:40;;;;;;;55.87;2.40;;;;;;;;;;5052297;28;20510;-69
2023/10/25 04:51:13;;;;;;;58.00;3.63;;;;;;;;;;5052179;28;20441;-69
2023/10/25 04:53:40;;;;;;;56.13;2.50;;;;;;;;;;5052168;28;20826;-69
2023/10/25 04:56:07;;;;;;;56.27;2.73;;;;;;;;;;5051889;28;20449;-69
2023/10/25 04:58:34;;;;;;;56.30;2.33;;;;;;;;;;5051917;28;20492;-70
2023/10/25 05:01:01;;;;;;;55.53;2.57;;;;;;;;;;5051276;28;20482;-69
2023/10/25 05:03:29;;;;;;;56.17;2.60;;;;;;;;;;5051894;28;20449;-69
2023/10/25 05:05:56;;;;;;;56.10;2.50;;;;;;;;;;5051975;28;20637;-69
2023/10/25 05:08:25;;;;;;;56.20;2.60;;;;;;;;;;5052087;28;20501;-69
2023/10/25 05:10:53;;;;;;;56.27;2.67;;;;;;;;;;5051513;28;20657;-69
2023/10/25 05:13:20;;;;;;;55.87;2.27;;;;;;;;;;5051533;28;20929;-69
2023/10/25 05:15:48;;;;;;;56.50;3.13;;;;;;;;;;5051485;28;20456;-69
2023/10/25 05:18:15;;;;;;;57.37;3.43;;;;;;;;;;5051268;28;20484;-69
2023/10/25 05:20:43;;;;;;;56.40;2.40;;;;;;;;;;5051562;28;20471;-69
2023/10/25 05:23:09;;;;;;;56.27;2.50;;;;;;;;;;5051403;28;20446;-69
2023/10/25 05:25:38;;;;;;;56.80;2.80;;;;;;;;;;5051402;28;20456;-69
2023/10/25 05:28:06;;;;;;;55.93;2.60;;;;;;;;;;5050732;28;21337;-69
2023/10/25 05:30:33;;;;;;;56.17;2.70;;;;;;;;;;5050589;28;20488;-69
2023/10/25 05:33:02;;;;;;;55.57;2.50;;;;;;;;;;5051326;28;20455;-69
2023/10/25 05:35:29;;;;;;;56.20;2.80;;;;;;;;;;5050983;28;20455;-70
2023/10/25 05:37:57;;;;;;;55.87;2.20;;;;;;;;;;5051262;28;20498;-70
2023/10/25 05:40:24;;;;;;;56.07;2.53;;;;;;;;;;5051130;28;20464;-70
2023/10/25 05:42:55;;;;;;;56.60;2.70;;;;;;;;;;5051394;28;20456;-70
2023/10/25 05:45:22;;;;;;;56.40;2.50;;;;;;;;;;5050705;28;20459;-69
2023/10/25 05:47:49;;;;;;;55.67;2.50;;;;;;;;;;5049967;28;20464;-69
2023/10/25 05:50:17;;;;;;;55.30;2.50;;;;;;;;;;5050581;28;20472;-69
2023/10/25 05:52:45;;;;;;;55.70;2.50;;;;;;;;;;5051119;28;20444;-69
2023/10/25 05:55:13;;;;;;;55.93;2.43;;;;;;;;;;5050782;28;20465;-69
2023/10/25 05:57:40;;;;;;;56.40;2.30;;;;;;;;;;5050746;28;20485;-69
2023/10/25 06:00:09;;;;;;;55.63;2.30;;;;;;;;;;5050494;28;20468;-69
2023/10/25 06:02:37;;;;;;;56.20;2.93;;;;;;;;;;5050972;28;20527;-69
2023/10/25 06:05:04;;;;;;;55.93;2.20;;;;;;;;;;5050931;28;20455;-69
2023/10/25 06:07:32;;;;;;;55.57;2.40;;;;;;;;;;5050726;28;20440;-69
2023/10/25 06:09:59;;;;;;;56.07;2.40;;;;;;;;;;5050705;28;20475;-69
2023/10/25 06:12:26;;;;;;;55.57;2.40;;;;;;;;;;5051053;28;20455;-69
2023/10/25 06:14:53;;;;;;;56.10;2.40;;;;;;;;;;5050587;28;20449;-69
2023/10/25 06:17:22;;;;;;;55.90;2.50;;;;;;;;;;5050556;28;20484;-69
2023/10/25 06:19:51;;;;;;;55.70;2.40;;;;;;;;;;5050366;28;20476;-69
2023/10/25 06:22:18;;;;;;;55.83;2.60;;;;;;;;;;5050599;28;20882;-69
2023/10/25 06:24:45;;;;;;;55.93;2.60;;;;;;;;;;5050691;28;20448;-70
2023/10/25 06:27:12;;;;;;;56.50;3.03;;;;;;;;;;5050688;28;20459;-69
2023/10/25 06:29:39;;;;;;;56.10;2.50;;;;;;;;;;5050556;28;20472;-69
2023/10/25 06:32:07;;;;;;;55.90;2.40;;;;;;;;;;5050535;28;20454;-69
2023/10/25 06:34:35;;;;;;;56.53;2.60;;;;;;;;;;5050339;28;20507;-69
2023/10/25 06:37:02;;;;;;;56.17;2.43;;;;;;;;;;5050328;28;20482;-69
2023/10/25 06:39:30;;;;;;;56.20;2.57;;;;;;;;;;5050363;28;20961;-69
2023/10/25 06:41:57;;;;;;;55.77;2.70;;;;;;;;;;5050412;28;20441;-69
2023/10/25 06:44:25;;;;;;;56.17;2.83;;;;;;;;;;5050442;28;20791;-69
2023/10/25 06:46:53;;;;;;;55.90;2.40;;;;;;;;;;5050397;28;20452;-69
2023/10/25 06:49:20;;;;;;;56.43;2.83;;;;;;;;;;5050347;28;20746;-69
2023/10/25 06:51:49;;;;;;;57.33;2.90;;;;;;;;;;5050521;28;20529;-70
2023/10/25 06:54:16;;;;;;;56.60;2.87;;;;;;;;;;5042322;28;20459;-70
2023/10/25 06:56:43;;;;;;;55.90;2.50;;;;;;;;;;5050372;28;20471;-69
2023/10/25 06:59:11;;;;;;;55.97;2.57;;;;;;;;;;5052143;28;20496;-70
2023/10/25 07:01:41;;;;;;;55.77;2.40;;;;;;;;;;5053930;28;20828;-70
2023/10/25 07:04:10;;;;;;;55.70;2.20;;;;;;;;;;5054160;28;20440;-69
2023/10/25 07:06:39;;;;;;;55.67;2.30;;;;;;;;;;5054418;28;20454;-69
2023/10/25 07:09:08;;;;;;;55.87;2.30;;;;;;;;;;5054081;28;20460;-69
2023/10/25 07:11:36;;;;;;;55.87;2.80;;;;;;;;;;5053930;28;20511;-69
2023/10/25 07:14:03;;;;;;;56.03;2.30;;;;;;;;;;5053706;28;20451;-69
2023/10/25 07:16:30;;;;;;;55.80;2.60;;;;;;;;;;5053831;28;20456;-69
2023/10/25 07:18:57;;;;;;;56.23;3.10;;;;;;;;;;5054018;28;20490;-69
2023/10/25 07:21:24;;;;;;;55.47;2.27;;;;;;;;;;5053951;28;20448;-70
2023/10/25 07:23:53;;;;;;;55.87;2.40;;;;;;;;;;5053867;28;20448;-70
2023/10/25 07:26:21;;;;;;;57.17;2.50;;;;;;;;;;5053764;28;20539;-69
2023/10/25 07:28:48;;;;;;;55.67;2.20;;;;;;;;;;5053698;28;20456;-69
2023/10/25 07:31:15;;;;;;;55.87;2.30;;;;;;;;;;5053648;28;20450;-69
2023/10/25 07:33:43;;;;;;;56.17;2.30;;;;;;;;;;5053486;28;20451;-69
2023/10/25 07:36:10;;;;;;;56.60;2.30;;;;;;;;;;5053512;28;20449;-69
2023/10/25 07:38:37;;;;;;;56.27;2.47;;;;;;;;;;5053434;28;20494;-69
2023/10/25 07:41:04;;;;;;;56.37;2.43;;;;;;;;;;5053203;28;20558;-69
2023/10/25 07:43:33;;;;;;;56.17;2.37;;;;;;;;;;5053177;28;20451;-69
2023/10/25 07:46:00;;;;;;;55.80;2.40;;;;;;;;;;5053459;28;20449;-69
2023/10/25 07:48:27;;;;;;;56.30;2.33;;;;;;;;;;5053563;28;20522;-69
2023/10/25 07:50:54;;;;;;;56.20;2.40;;;;;;;;;;5053133;28;20473;-69
2023/10/25 07:53:22;;;;;;;56.10;2.83;;;;;;;;;;5053213;28;20449;-69
2023/10/25 07:55:50;;;;;;;55.93;2.60;;;;;;;;;;5053048;28;20514;-69
2023/10/25 07:58:17;;;;;;;55.97;2.30;;;;;;;;;;5053123;28;20561;-69
2023/10/25 08:00:48;;;;;;;56.30;3.00;;;;;;;;;;5052959;28;20482;-69
2023/10/25 08:03:17;;;;;;;55.97;2.57;;;;;;;;;;5053093;28;20503;-69
2023/10/25 08:05:44;;;;;;;55.77;2.27;;;;;;;;;;5052871;28;20534;-69
2023/10/25 08:08:11;;;;;;;55.40;2.10;;;;;;;;;;5052810;28;20441;-69
2023/10/25 08:10:38;;;;;;;55.40;2.27;;;;;;;;;;5051781;28;20977;-69
2023/10/25 08:13:05;;;;;;;56.50;2.80;;;;;;;;;;5052898;28;20820;-69
2023/10/25 08:15:36;;;;;;;55.47;2.20;;;;;;;;;;5052974;28;20449;-69
2023/10/25 08:18:04;;;;;;;55.80;2.50;;;;;;;;;;5052725;28;20496;-69
2023/10/25 08:20:35;;;;;;;55.53;2.27;;;;;;;;;;5052488;28;20983;-69
2023/10/25 08:23:03;;;;;;;56.00;2.20;;;;;;;;;;5052503;28;20463;-69
2023/10/25 08:25:30;;;;;;;56.00;2.10;;;;;;;;;;5052576;28;20551;-69
2023/10/25 08:27:57;;;;;;;55.67;2.20;;;;;;;;;;5052640;28;20444;-69
2023/10/25 08:30:24;;;;;;;55.90;2.30;;;;;;;;;;5052400;28;20467;-69
2023/10/25 08:32:51;;;;;;;55.83;2.07;;;;;;;;;;5052557;28;20448;-69
2023/10/25 08:35:20;;;;;;;56.10;2.30;;;;;;;;;;5052162;28;20449;-69
2023/10/25 08:37:47;;;;;;;55.97;2.40;;;;;;;;;;5052203;28;20491;-69
2023/10/25 08:40:15;;;;;;;56.10;2.20;;;;;;;;;;5052239;28;20463;-69
2023/10/25 08:42:42;;;;;;;55.63;2.13;;;;;;;;;;5052500;28;20449;-69
2023/10/25 08:45:10;;;;;;;55.80;2.07;;;;;;;;;;5052207;28;20446;-69
2023/10/25 08:47:39;;;;;;;56.97;2.47;;;;;;;;;;5052276;28;20448;-69
2023/10/25 08:50:06;;;;;;;55.73;2.07;;;;;;;;;;5051705;28;20524;-69
2023/10/25 08:52:37;;;;;;;56.00;2.40;;;;;;;;;;5052307;28;20444;-69
2023/10/25 08:55:04;;;;;;;55.87;2.40;;;;;;;;;;5051917;28;20447;-69
2023/10/25 08:57:31;;;;;;;55.57;1.97;;;;;;;;;;5051400;28;20485;-69
2023/10/25 08:59:58;;;;;;;55.80;2.00;;;;;;;;;;5051659;28;20781;-69
2023/10/25 09:02:25;;;;;;;56.20;2.40;;;;;;;;;;5051804;28;20467;-69
2023/10/25 09:04:59;;;;;;;55.90;2.43;;;;;;;;;;5051524;28;20548;-69
2023/10/25 09:07:29;;;;;;;56.17;2.03;;;;;;;;;;5044134;28;20453;-69
2023/10/25 09:09:58;;;;;;;56.20;2.50;;;;;;;;;;5051571;28;20515;-69
2023/10/25 09:12:25;;;;;;;55.60;2.00;;;;;;;;;;5044111;28;20825;-69
2023/10/25 09:14:52;;;;;;;55.77;2.30;;;;;;;;;;5051341;28;20926;-68
2023/10/25 09:17:19;;;;;;;56.20;2.40;;;;;;;;;;5051444;28;20454;-69
2023/10/25 09:19:47;;;;;;;55.73;1.97;;;;;;;;;;5051611;28;20488;-68
2023/10/25 09:22:21;;;;;;;55.73;2.07;;;;;;;;;;5050598;28;20450;-69
2023/10/25 09:24:48;;;;;;;55.47;2.10;;;;;;;;;;5051260;28;20510;-69
2023/10/25 09:27:17;;;;;;;55.90;2.87;;;;;;;;;;5051411;28;20457;-69
2023/10/25 09:29:44;;;;;;;56.07;2.40;;;;;;;;;;5051311;28;20478;-69
2023/10/25 09:32:11;;;;;;;55.87;2.27;;;;;;;;;;5051368;28;20455;-69
2023/10/25 09:34:39;;;;;;;55.67;2.10;;;;;;;;;;5051316;28;20442;-69
2023/10/25 09:37:06;;;;;;;55.87;2.50;;;;;;;;;;5051188;28;20953;-69
2023/10/25 09:39:35;;;;;;;56.00;2.47;;;;;;;;;;5051060;28;20488;-69
2023/10/25 09:42:03;;;;;;;56.20;2.23;;;;;;;;;;5051006;28;20458;-69
2023/10/25 09:44:37;;;;;;;56.10;2.30;;;;;;;;;;5051227;28;20452;-70
2023/10/25 09:47:05;;;;;;;55.80;2.20;;;;;;;;;;5051266;28;20454;-70
2023/10/25 09:49:35;;;;;;;55.70;2.13;;;;;;;;;;5051319;28;20469;-70
2023/10/25 09:52:06;;;;;;;55.80;2.13;;;;;;;;;;5050918;28;20449;-70
2023/10/25 09:54:34;;;;;;;55.83;2.30;;;;;;;;;;5050869;28;20949;-69
2023/10/25 09:57:02;;;;;;;55.90;2.40;;;;;;;;;;5050804;28;20450;-70
2023/10/25 09:59:30;;;;;;;55.73;2.10;;;;;;;;;;5051070;28;20899;-69
2023/10/25 10:01:59;;;;;;;55.90;2.30;;;;;;;;;;5050815;28;20456;-69
2023/10/25 10:04:29;;;;;;;55.73;2.13;;;;;;;;;;5050861;28;20455;-69
2023/10/25 10:07:01;;;;;;;56.07;2.40;;;;;;;;;;5050945;28;20498;-69
2023/10/25 10:09:31;;;;;;;55.57;1.97;;;;;;;;;;5051174;28;20480;-69
2023/10/25 10:12:01;;;;;;;55.70;2.17;;;;;;;;;;5050919;28;20502;-69
2023/10/25 10:14:28;;;;;;;55.83;2.20;;;;;;;;;;5050821;28;20449;-69
2023/10/25 10:16:59;;;;;;;55.80;2.40;;;;;;;;;;5050892;28;20445;-69
2023/10/25 10:19:26;;;;;;;55.97;2.50;;;;;;;;;;5055167;28;20965;-69
2023/10/25 10:22:09;;;;;;;55.77;2.43;;;;;;;;;;5055566;28;20449;-70
2023/10/25 10:24:44;;;;;;;55.80;2.30;;;;;;;;;;5060426;28;20459;-69
2023/10/25 10:27:11;;;;;;;57.57;2.93;;;;;;;;;;5063095;28;20441;-69
2023/10/25 10:29:39;;;;;;;55.90;2.20;;;;;;;;;;5063140;28;20467;-69
2023/10/25 10:32:08;;;;;;;55.90;2.20;;;;;;;;;;5064719;28;20440;-69
2023/10/25 10:34:38;;;;;;;55.90;2.13;;;;;;;;;;5069612;28;20440;-69
2023/10/25 10:37:07;;;;;;;55.77;2.23;;;;;;;;;;5071598;28;20443;-69
2023/10/25 10:39:34;;;;;;;55.40;2.00;;;;;;;;;;5064042;28;20540;-69
2023/10/25 10:42:02;;;;;;;57.40;2.03;;;;;;;;;;5071981;28;20446;-69
2023/10/25 10:44:29;;;;;;;55.67;1.90;;;;;;;;;;5072880;28;20454;-69
2023/10/25 10:46:57;;;;;;;56.40;2.67;;;;;;;;;;5072126;28;20448;-69
2023/10/25 10:49:29;;;;;;;55.93;2.10;;;;;;;;;;5060252;28;20473;-70
2023/10/25 10:51:56;;;;;;;55.87;2.10;;;;;;;;;;5055352;28;20919;-70
2023/10/25 10:54:23;;;;;;;55.83;2.03;;;;;;;;;;5055413;28;20444;-69
2023/10/25 10:56:50;;;;;;;56.97;2.70;;;;;;;;;;5058988;28;20449;-69
2023/10/25 10:59:17;;;;;;;56.30;2.60;;;;;;;;;;5063797;28;20489;-69
2023/10/25 11:01:44;;;;;;;55.77;2.00;;;;;;;;;;5054848;28;20459;-69
2023/10/25 11:04:12;;;;;;;55.87;2.20;;;;;;;;;;5054667;28;20454;-69
2023/10/25 11:06:41;;;;;;;55.60;2.20;;;;;;;;;;5054471;28;20454;-69
2023/10/25 11:09:09;;;;;;;55.77;2.10;;;;;;;;;;5054387;28;20469;-69
2023/10/25 11:11:36;;;;;;;55.90;2.03;;;;;;;;;;5062166;28;20440;-69
2023/10/25 11:14:03;;;;;;;55.87;2.30;;;;;;;;;;5054811;28;20455;-69
2023/10/25 11:16:31;;;;;;;56.00;2.10;;;;;;;;;;5054889;28;20451;-69
2023/10/25 11:19:07;;;;;;;55.67;2.00;;;;;;;;;;5054129;28;20492;-69
2023/10/25 11:21:34;;;;;;;55.70;2.00;;;;;;;;;;5054101;28;20455;-70
2023/10/25 11:24:06;;;;;;;56.10;2.20;;;;;;;;;;5054050;28;20441;-69
2023/10/25 11:26:37;;;;;;;55.67;2.00;;;;;;;;;;5054245;28;20463;-70
2023/10/25 11:29:05;;;;;;;55.77;1.93;;;;;;;;;;5054319;28;20559;-69
2023/10/25 11:31:33;;;;;;;55.73;2.10;;;;;;;;;;5054253;28;20505;-69
2023/10/25 11:34:01;;;;;;;56.10;2.20;;;;;;;;;;5054112;28;20451;-69
2023/10/25 11:36:29;;;;;;;55.77;2.00;;;;;;;;;;5054481;28;20447;-69
2023/10/25 11:39:03;;;;;;;55.60;1.90;;;;;;;;;;5053947;28;20480;-69
2023/10/25 11:41:30;;;;;;;55.90;1.90;;;;;;;;;;5046007;28;20506;-69
2023/10/25 11:43:58;;;;;;;55.90;1.97;;;;;;;;;;5054034;28;20457;-69
2023/10/25 11:46:26;;;;;;;55.73;2.00;;;;;;;;;;5052628;28;20448;-69
2023/10/25 11:48:53;;;;;;;56.00;2.10;;;;;;;;;;5053437;28;20455;-69
2023/10/25 11:51:20;;;;;;;56.07;2.10;;;;;;;;;;5053271;28;20460;-69
2023/10/25 11:53:47;;;;;;;55.83;2.00;;;;;;;;;;5053808;28;20452;-69
2023/10/25 11:56:15;;;;;;;56.27;2.33;;;;;;;;;;5053634;28;20460;-69
2023/10/25 11:58:43;;;;;;;55.90;1.90;;;;;;;;;;5053312;28;20450;-69
2023/10/25 12:01:10;;;;;;;55.83;2.00;;;;;;;;;;5053096;28;20968;-69
2023/10/25 12:03:38;;;;;;;55.93;2.07;;;;;;;;;;5053227;28;20798;-69
2023/10/25 12:06:05;;;;;;;56.00;1.87;;;;;;;;;;5053219;28;20820;-69
2023/10/25 12:08:32;;;;;;;56.90;1.80;;;;;;;;;;5053378;28;20527;-69
2023/10/25 12:10:59;;;;;;;56.07;1.97;;;;;;;;;;5053118;28;20467;-69
2023/10/25 12:13:27;;;;;;;56.13;1.97;;;;;;;;;;5052921;28;20458;-69
2023/10/25 12:15:55;;;;;;;55.93;2.30;;;;;;;;;;5052979;28;20444;-70
2023/10/25 12:18:22;;;;;;;55.67;2.00;;;;;;;;;;5052856;28;20933;-70
2023/10/25 12:20:49;;;;;;;56.00;2.10;;;;;;;;;;5052451;28;21027;-70
2023/10/25 12:23:16;;;;;;;56.40;2.00;;;;;;;;;;5052694;28;20949;-70
2023/10/25 12:25:43;;;;;;;55.97;2.00;;;;;;;;;;5052737;28;20577;-70
2023/10/25 12:28:10;;;;;;;55.67;2.00;;;;;;;;;;5043912;28;20462;-70
2023/10/25 12:30:38;;;;;;;55.93;2.10;;;;;;;;;;5052694;28;21011;-70
2023/10/25 12:33:05;;;;;;;56.20;2.20;;;;;;;;;;5052524;28;20554;-70
2023/10/25 12:35:33;;;;;;;55.77;1.90;;;;;;;;;;5052508;28;20452;-69
2023/10/25 12:38:00;;;;;;;56.30;2.13;;;;;;;;;;5052692;28;20451;-70
2023/10/25 12:40:26;;;;;;;55.87;1.90;;;;;;;;;;5052101;28;20842;-70
2023/10/25 12:42:53;;;;;;;55.90;2.00;;;;;;;;;;5052759;28;20535;-70
2023/10/25 12:45:20;;;;;;;55.77;1.80;;;;;;;;;;5051246;28;20456;-70
2023/10/25 12:47:48;;;;;;;55.87;2.03;;;;;;;;;;5051240;28;20448;-70
2023/10/25 12:50:16;;;;;;;55.87;2.00;;;;;;;;;;5051255;28;20470;-70
2023/10/25 12:52:43;;;;;;;55.77;1.70;;;;;;;;;;5051031;28;20444;-70
2023/10/25 12:55:11;;;;;;;55.87;1.80;;;;;;;;;;5051004;28;20455;-70
2023/10/25 12:57:38;;;;;;;56.03;2.00;;;;;;;;;;5051746;28;20451;-71
2023/10/25 13:00:06;;;;;;;55.87;1.83;;;;;;;;;;5050999;28;20495;-71
2023/10/25 13:02:33;;;;;;;55.83;2.00;;;;;;;;;;5052320;28;20447;-71
2023/10/25 13:05:02;;;;;;;55.77;1.90;;;;;;;;;;5051950;28;20451;-71
2023/10/25 13:07:29;;;;;;;55.57;1.80;;;;;;;;;;5052095;28;20456;-71
2023/10/25 13:09:56;;;;;;;56.00;1.97;;;;;;;;;;5052070;28;20466;-71
2023/10/25 13:12:23;;;;;;;55.90;1.90;;;;;;;;;;5051835;28;20448;-71
2023/10/25 13:14:50;;;;;;;55.87;1.90;;;;;;;;;;5051571;28;20443;-71
2023/10/25 13:17:17;;;;;;;55.87;1.90;;;;;;;;;;5051871;28;20453;-71
2023/10/25 13:19:45;;;;;;;56.47;2.40;;;;;;;;;;5051850;28;20488;-71
2023/10/25 13:22:14;;;;;;;55.83;2.13;;;;;;;;;;5051499;28;20949;-71
2023/10/25 13:24:41;;;;;;;56.07;2.37;;;;;;;;;;5047226;28;20462;-71
2023/10/25 13:27:08;;;;;;;55.73;2.13;;;;;;;;;;5047820;28;20462;-71
2023/10/25 13:29:35;;;;;;;56.40;2.30;;;;;;;;;;5051718;28;20473;-71
2023/10/25 13:32:02;;;;;;;56.20;2.20;;;;;;;;;;5051672;28;20463;-71
2023/10/25 13:34:29;;;;;;;56.00;2.10;;;;;;;;;;5051116;28;20462;-71
2023/10/25 13:36:56;;;;;;;55.67;2.00;;;;;;;;;;5051347;28;20455;-71
2023/10/25 13:39:25;;;;;;;55.57;1.90;;;;;;;;;;5051121;28;20494;-71
2023/10/25 13:41:52;;;;;;;56.10;2.27;;;;;;;;;;5050795;28;20459;-71
2023/10/25 13:44:19;;;;;;;55.90;2.00;;;;;;;;;;5051337;28;20457;-71
2023/10/25 13:46:46;;;;;;;55.90;1.80;;;;;;;;;;5051330;28;20448;-70
2023/10/25 13:49:13;;;;;;;55.80;2.00;;;;;;;;;;5051019;28;20896;-71
2023/10/25 13:51:40;;;;;;;55.90;2.10;;;;;;;;;;5051199;28;20483;-71
2023/10/25 13:54:08;;;;;;;55.77;2.00;;;;;;;;;;5051259;28;20455;-71
2023/10/25 13:56:36;;;;;;;55.87;2.10;;;;;;;;;;5051696;28;20451;-71
2023/10/25 13:59:03;;;;;;;56.10;2.30;;;;;;;;;;5051207;28;20828;-71
2023/10/25 14:01:31;;;;;;;55.90;2.00;;;;;;;;;;5050884;28;20468;-71
2023/10/25 14:03:58;;;;;;;55.87;2.00;;;;;;;;;;5050852;28;20898;-71
2023/10/25 14:06:25;;;;;;;56.07;2.00;;;;;;;;;;5050979;28;20445;-71
2023/10/25 14:08:52;;;;;;;55.90;1.97;;;;;;;;;;5050467;28;21085;-70
2023/10/25 14:11:19;;;;;;;56.57;2.27;;;;;;;;;;5050993;28;20447;-71
2023/10/25 14:13:50;;;;;;;55.80;1.83;;;;;;;;;;5051080;28;20878;-71
2023/10/25 14:16:17;;;;;;;55.77;1.93;;;;;;;;;;5050902;28;20499;-70
2023/10/25 14:18:45;;;;;;;56.03;2.03;;;;;;;;;;5050975;28;20470;-71
2023/10/25 14:21:12;;;;;;;56.00;2.10;;;;;;;;;;5050556;28;20497;-70
2023/10/25 14:23:39;;;;;;;55.90;1.97;;;;;;;;;;5050542;28;20488;-71
2023/10/25 14:26:07;;;;;;;55.80;1.77;;;;;;;;;;5050966;28;20452;-71
2023/10/25 14:28:34;;;;;;;55.80;1.73;;;;;;;;;;5050836;28;20443;-71
2023/10/25 14:31:03;;;;;;;55.87;1.93;;;;;;;;;;5050436;28;20475;-71
2023/10/25 14:33:30;;;;;;;55.60;1.83;;;;;;;;;;5050514;28;20817;-71